Time;durP1;ratioP1;P1;durP2;ratioP2;P2;SDS_P1;SDS_P2;PMS_P1;PMS_P2;Temp;Humidity;BMP_temperature;BMP_pressure;BME280_temperature;BME280_humidity;BME280_pressure;Samples;Min_cycle;Max_cycle;Signal;HPM_P1;HPM_P2
2023/11/03 00:00:31;;;;;;;1.38;0.93;;;8.00;99.90;;;;;;5054060;28;20527;-74
2023/11/03 00:02:59;;;;;;;0.80;0.77;;;8.00;99.90;;;;;;5052561;28;20413;-74
2023/11/03 00:05:26;;;;;;;0.93;0.60;;;8.00;99.90;;;;;;5052482;28;20040;-74
2023/11/03 00:07:51;;;;;;;1.45;1.08;;;8.00;99.90;;;;;;5052760;28;20377;-74
2023/11/03 00:10:18;;;;;;;0.32;0.22;;;7.90;99.90;;;;;;5051104;28;20052;-74
2023/11/03 00:12:44;;;;;;;1.27;1.05;;;7.90;99.90;;;;;;5048489;28;20029;-73
2023/11/03 00:15:10;;;;;;;0.55;0.50;;;7.90;99.90;;;;;;5047638;28;20075;-72
2023/11/03 00:17:37;;;;;;;1.52;1.15;;;7.80;99.90;;;;;;5048463;28;20025;-73
2023/11/03 00:20:05;;;;;;;14.27;1.50;;;7.80;99.90;;;;;;5042891;28;20026;-74
2023/11/03 00:22:32;;;;;;;0.43;0.43;;;7.80;99.90;;;;;;5048591;28;20043;-74
2023/11/03 00:24:58;;;;;;;1.17;0.65;;;7.70;99.90;;;;;;5044680;28;20160;-74
2023/11/03 00:27:25;;;;;;;0.20;0.20;;;7.70;99.90;;;;;;5050992;28;20040;-74
2023/11/03 00:29:52;;;;;;;1.15;0.88;;;7.70;99.90;;;;;;5049232;28;20021;-74
2023/11/03 00:32:18;;;;;;;0.25;0.22;;;7.80;99.90;;;;;;5048481;28;20171;-74
2023/11/03 00:34:44;;;;;;;0.90;0.57;;;7.90;99.90;;;;;;5052019;28;20021;-74
2023/11/03 00:37:10;;;;;;;3.78;0.90;;;7.90;99.90;;;;;;5051267;28;20036;-74
2023/11/03 00:39:38;;;;;;;0.93;0.47;;;7.90;99.90;;;;;;5048329;28;20030;-73
2023/11/03 00:42:04;;;;;;;0.63;0.63;;;7.90;99.90;;;;;;5049321;28;20048;-74
2023/11/03 00:44:32;;;;;;;1.20;1.10;;;7.80;99.90;;;;;;5053026;28;20112;-73
2023/11/03 00:46:58;;;;;;;1.80;0.85;;;7.80;99.90;;;;;;5050934;28;20040;-74
2023/11/03 00:49:24;;;;;;;2.50;1.58;;;7.80;99.90;;;;;;5051477;28;20029;-74
2023/11/03 00:51:50;;;;;;;0.50;0.50;;;7.80;99.90;;;;;;5052432;28;20040;-74
2023/11/03 00:54:16;;;;;;;0.63;0.63;;;7.70;99.90;;;;;;5052446;28;20037;-73
2023/11/03 00:56:42;;;;;;;1.02;0.75;;;7.60;99.90;;;;;;5047205;28;20040;-73
2023/11/03 00:59:07;;;;;;;0.88;0.60;;;7.60;99.90;;;;;;5049283;28;20107;-74
2023/11/03 01:01:34;;;;;;;2.50;0.85;;;7.70;99.90;;;;;;5045024;28;20036;-74
2023/11/03 01:04:01;;;;;;;3.83;0.65;;;7.70;99.90;;;;;;5051498;28;20044;-73
2023/11/03 01:06:28;;;;;;;1.45;0.40;;;7.60;99.90;;;;;;5049858;28;20045;-74
2023/11/03 01:08:54;;;;;;;4.95;1.67;;;7.60;99.90;;;;;;5051330;28;20036;-74
2023/11/03 01:11:23;;;;;;;1.45;0.80;;;7.50;99.90;;;;;;5050669;28;20500;-73
2023/11/03 01:13:50;;;;;;;1.95;0.93;;;7.50;99.90;;;;;;5047357;28;20068;-73
2023/11/03 01:16:16;;;;;;;1.50;1.38;;;7.40;99.90;;;;;;5046277;28;20108;-74
2023/11/03 01:18:42;;;;;;;1.65;0.95;;;7.40;99.90;;;;;;5047915;28;20426;-74
2023/11/03 01:21:15;;;;;;;0.25;0.25;;;7.30;99.90;;;;;;5045723;28;20072;-74
2023/11/03 01:23:48;;;;;;;7.07;0.65;;;7.30;99.90;;;;;;5060861;28;20021;-73
2023/11/03 01:26:16;;;;;;;1.65;0.47;;;7.30;99.90;;;;;;5050160;28;20048;-74
2023/11/03 01:28:45;;;;;;;0.55;0.55;;;7.30;99.90;;;;;;5052468;28;20025;-73
2023/11/03 01:31:11;;;;;;;0.43;0.35;;;7.40;99.90;;;;;;5042565;28;20063;-74
2023/11/03 01:33:40;;;;;;;0.25;0.25;;;7.40;99.90;;;;;;5052310;28;20465;-74
2023/11/03 01:36:08;;;;;;;0.55;0.55;;;7.40;99.90;;;;;;5047514;28;20029;-73
2023/11/03 01:38:34;;;;;;;14.93;0.57;;;7.40;99.90;;;;;;5050467;28;20070;-73
2023/11/03 01:41:01;;;;;;;1.25;0.30;;;7.40;99.90;;;;;;5050768;28;20108;-74
2023/11/03 01:43:30;;;;;;;2.53;0.85;;;7.40;99.90;;;;;;5050153;28;20032;-74
2023/11/03 01:46:00;;;;;;;0.10;0.10;;;7.50;99.90;;;;;;5046972;28;20370;-73
2023/11/03 01:48:27;;;;;;;0.43;0.43;;;7.50;99.90;;;;;;5049511;28;20138;-74
2023/11/03 01:50:55;;;;;;;1.00;0.43;;;7.50;99.90;;;;;;5047098;28;20404;-74
2023/11/03 01:53:21;;;;;;;1.00;0.68;;;7.60;99.90;;;;;;5041730;28;20030;-73
2023/11/03 01:55:48;;;;;;;2.65;0.52;;;7.60;99.90;;;;;;5047454;28;20033;-73
2023/11/03 01:58:15;;;;;;;1.48;0.30;;;7.70;99.90;;;;;;5039706;28;20033;-73
2023/11/03 02:00:41;;;;;;;6.57;0.80;;;7.70;99.90;;;;;;5034143;28;20372;-74
2023/11/03 02:03:07;;;;;;;0.43;0.32;;;7.80;99.90;;;;;;5041101;28;20120;-73
2023/11/03 02:05:35;;;;;;;0.73;0.63;;;7.80;99.90;;;;;;5050515;28;20754;-74
2023/11/03 02:08:01;;;;;;;0.93;0.73;;;7.80;99.90;;;;;;5053212;28;20095;-74
2023/11/03 02:10:27;;;;;;;0.88;0.47;;;7.90;99.90;;;;;;5040628;28;20484;-74
2023/11/03 02:12:52;;;;;;;0.45;0.30;;;7.90;99.90;;;;;;5047431;28;20037;-73
2023/11/03 02:15:18;;;;;;;0.95;0.50;;;7.90;99.90;;;;;;5052418;28;20032;-74
2023/11/03 02:17:44;;;;;;;0.93;0.68;;;8.00;99.90;;;;;;5043828;28;20069;-74
2023/11/03 02:20:10;;;;;;;0.68;0.60;;;8.00;99.90;;;;;;5047018;28;20021;-74
2023/11/03 02:22:36;;;;;;;1.48;0.70;;;8.00;99.90;;;;;;5029578;28;20053;-73
2023/11/03 02:25:03;;;;;;;0.90;0.47;;;8.00;99.90;;;;;;5037643;28;20057;-73
2023/11/03 02:27:29;;;;;;;1.67;1.13;;;8.00;99.90;;;;;;5048652;28;20091;-73
2023/11/03 02:29:55;;;;;;;0.60;0.50;;;8.00;99.90;;;;;;5044877;28;20025;-73
2023/11/03 02:32:22;;;;;;;0.70;0.47;;;8.00;99.90;;;;;;5047411;28;20108;-74
2023/11/03 02:34:48;;;;;;;1.65;1.05;;;8.10;99.90;;;;;;5054850;28;20556;-74
2023/11/03 02:37:14;;;;;;;1.13;0.55;;;8.20;99.90;;;;;;5046379;28;20036;-74
2023/11/03 02:39:40;;;;;;;4.18;1.80;;;8.20;99.90;;;;;;5034958;28;20021;-74
2023/11/03 02:42:08;;;;;;;3.45;1.20;;;8.20;99.90;;;;;;5049577;28;20021;-74
2023/11/03 02:44:34;;;;;;;2.42;0.82;;;8.20;99.90;;;;;;5042153;28;20021;-74
2023/11/03 02:47:00;;;;;;;0.65;0.43;;;8.20;99.90;;;;;;5049025;28;20044;-74
2023/11/03 02:49:26;;;;;;;0.63;0.30;;;8.20;99.90;;;;;;5031521;28;20352;-74
2023/11/03 02:51:52;;;;;;;2.70;1.02;;;8.20;99.90;;;;;;5027517;28;20029;-73
2023/11/03 02:54:18;;;;;;;2.05;1.27;;;8.20;99.90;;;;;;5030903;28;20075;-74
2023/11/03 02:56:44;;;;;;;5.18;1.58;;;8.20;99.90;;;;;;5039018;28;20477;-74
2023/11/03 02:59:11;;;;;;;3.25;1.38;;;8.20;99.90;;;;;;5048260;28;20024;-74
2023/11/03 03:01:37;;;;;;;9.23;1.92;;;8.20;99.90;;;;;;5047921;28;20532;-74
2023/11/03 03:04:03;;;;;;;2.10;0.88;;;8.20;99.90;;;;;;5057849;28;20048;-73
2023/11/03 03:06:29;;;;;;;0.40;0.40;;;8.20;99.90;;;;;;5046771;28;20138;-73
2023/11/03 03:08:55;;;;;;;0.60;0.57;;;8.30;99.90;;;;;;5040431;28;20377;-74
2023/11/03 03:11:21;;;;;;;2.00;0.85;;;8.40;99.90;;;;;;5040770;28;20133;-74
2023/11/03 03:13:46;;;;;;;0.50;0.50;;;8.40;99.90;;;;;;5044608;28;20091;-74
2023/11/03 03:16:17;;;;;;;6.30;0.82;;;8.40;99.90;;;;;;5046155;28;20096;-74
2023/11/03 03:18:42;;;;;;;0.40;0.40;;;8.40;99.90;;;;;;5031310;28;20018;-74
2023/11/03 03:21:08;;;;;;;0.90;0.43;;;8.50;99.90;;;;;;5046467;28;20035;-74
2023/11/03 03:23:34;;;;;;;1.83;0.55;;;8.50;99.90;;;;;;5047816;28;20135;-74
2023/11/03 03:25:59;;;;;;;2.65;0.32;;;8.50;99.90;;;;;;5048159;28;20120;-74
2023/11/03 03:28:25;;;;;;;0.47;0.47;;;8.60;99.90;;;;;;5028543;28;20046;-74
2023/11/03 03:30:51;;;;;;;0.30;0.30;;;8.60;99.90;;;;;;5034970;28;20179;-74
2023/11/03 03:33:17;;;;;;;3.63;0.75;;;8.60;99.90;;;;;;5026366;28;20569;-73
2023/11/03 03:35:43;;;;;;;1.17;0.50;;;8.70;99.90;;;;;;5048517;28;20028;-73
2023/11/03 03:38:08;;;;;;;0.60;0.55;;;8.70;99.90;;;;;;5039557;28;20046;-72
2023/11/03 03:40:34;;;;;;;1.70;0.32;;;8.70;99.90;;;;;;5051922;28;20033;-72
2023/11/03 03:43:01;;;;;;;1.73;0.93;;;8.70;99.90;;;;;;5034885;28;20036;-74
2023/11/03 03:45:26;;;;;;;1.75;0.90;;;8.80;99.90;;;;;;5040352;28;20366;-72
2023/11/03 03:47:52;;;;;;;3.10;0.68;;;8.80;99.90;;;;;;5045756;28;20072;-72
2023/11/03 03:50:18;;;;;;;3.53;0.50;;;8.80;99.90;;;;;;5049862;28;20493;-72
2023/11/03 03:52:44;;;;;;;0.45;0.45;;;8.80;99.90;;;;;;5038814;28;20044;-72
2023/11/03 03:55:09;;;;;;;1.55;0.63;;;8.80;99.90;;;;;;5039123;28;20095;-72
2023/11/03 03:57:35;;;;;;;3.20;0.68;;;8.80;99.90;;;;;;5048656;28;20025;-72
2023/11/03 04:00:01;;;;;;;0.20;0.20;;;8.80;99.90;;;;;;5032796;28;20087;-72
2023/11/03 04:02:26;;;;;;;0.10;0.10;;;8.80;99.90;;;;;;5048214;28;20033;-73
2023/11/03 04:04:52;;;;;;;0.73;0.30;;;8.80;99.90;;;;;;5044399;28;20022;-73
2023/11/03 04:07:18;;;;;;;0.80;0.20;;;8.80;99.90;;;;;;5045240;28;20127;-73
2023/11/03 04:09:44;;;;;;;1.55;0.73;;;8.80;99.90;;;;;;5042610;28;20470;-72
2023/11/03 04:12:10;;;;;;;2.08;0.38;;;8.80;99.90;;;;;;5048871;28;20029;-73
2023/11/03 04:14:36;;;;;;;0.00;0.00;;;8.80;99.90;;;;;;5042808;28;20029;-73
2023/11/03 04:17:03;;;;;;;1.50;0.43;;;8.80;99.90;;;;;;5039300;28;20036;-74
2023/11/03 04:19:29;;;;;;;0.30;0.25;;;8.80;99.90;;;;;;5045174;28;20047;-73
2023/11/03 04:21:55;;;;;;;0.28;0.25;;;8.80;99.90;;;;;;5053666;28;20466;-73
2023/11/03 04:24:20;;;;;;;0.40;0.40;;;8.80;99.90;;;;;;5052608;28;20040;-74
2023/11/03 04:26:47;;;;;;;0.20;0.20;;;8.80;99.90;;;;;;5050141;28;20033;-73
2023/11/03 04:29:14;;;;;;;1.05;1.00;;;8.80;99.90;;;;;;5050471;28;20036;-72
2023/11/03 04:31:39;;;;;;;0.10;0.10;;;8.80;99.90;;;;;;5042443;28;20029;-73
2023/11/03 04:34:05;;;;;;;0.10;0.10;;;8.80;99.90;;;;;;5050009;28;20379;-72
2023/11/03 04:36:31;;;;;;;0.15;0.15;;;8.80;99.90;;;;;;5041895;28;20040;-71
2023/11/03 04:38:56;;;;;;;5.15;1.70;;;8.80;99.90;;;;;;5025015;28;20025;-73
2023/11/03 04:41:22;;;;;;;5.28;1.10;;;8.80;99.90;;;;;;5035121;28;20441;-72
2023/11/03 04:43:48;;;;;;;0.40;0.22;;;8.70;99.90;;;;;;5051996;28;20321;-73
2023/11/03 04:46:14;;;;;;;0.63;0.63;;;8.80;99.90;;;;;;5035474;28;20029;-73
2023/11/03 04:48:39;;;;;;;6.07;0.47;;;8.80;99.90;;;;;;5037158;28;20032;-73
2023/11/03 04:51:10;;;;;;;0.20;0.20;;;8.70;99.90;;;;;;5048791;28;20029;-73
2023/11/03 04:53:36;;;;;;;1.45;0.65;;;8.70;99.90;;;;;;5036850;28;20041;-72
2023/11/03 04:56:02;;;;;;;4.40;0.55;;;8.80;99.90;;;;;;5033511;28;20017;-73
2023/11/03 04:58:27;;;;;;;0.47;0.40;;;8.80;99.90;;;;;;5041140;28;20033;-73
2023/11/03 05:00:54;;;;;;;0.65;0.47;;;8.80;99.90;;;;;;5047143;28;20539;-73
2023/11/03 05:03:20;;;;;;;1.30;1.20;;;8.80;99.90;;;;;;5037393;28;20102;-73
2023/11/03 05:05:46;;;;;;;11.05;0.30;;;8.70;99.90;;;;;;5032873;28;20021;-74
2023/11/03 05:08:13;;;;;;;0.20;0.20;;;8.80;99.90;;;;;;5035602;28;20378;-73
2023/11/03 05:10:39;;;;;;;4.80;0.50;;;8.80;99.90;;;;;;5032924;28;20396;-73
2023/11/03 05:13:06;;;;;;;5.78;0.63;;;8.70;99.90;;;;;;5035974;28;20102;-73
2023/11/03 05:15:32;;;;;;;8.05;0.77;;;8.60;99.90;;;;;;5049124;28;20383;-74
2023/11/03 05:17:58;;;;;;;0.28;0.28;;;8.60;99.90;;;;;;5035436;28;20562;-72
2023/11/03 05:20:25;;;;;;;0.10;0.10;;;8.60;99.90;;;;;;5047629;28;20029;-73
2023/11/03 05:22:51;;;;;;;1.02;0.57;;;8.60;99.90;;;;;;5036793;28;20500;-74
2023/11/03 05:25:17;;;;;;;0.10;0.10;;;8.50;99.90;;;;;;5040954;28;20242;-73
2023/11/03 05:27:43;;;;;;;1.02;0.50;;;8.50;99.90;;;;;;5044028;28;20021;-74
2023/11/03 05:30:09;;;;;;;0.90;0.50;;;8.60;99.90;;;;;;5035405;28;20481;-74
2023/11/03 05:32:35;;;;;;;7.13;0.40;;;8.60;99.90;;;;;;5035393;28;20030;-73
2023/11/03 05:35:02;;;;;;;0.50;0.35;;;8.60;99.90;;;;;;5038790;28;20056;-73
2023/11/03 05:37:27;;;;;;;0.50;0.22;;;8.70;99.90;;;;;;5043671;28;20035;-73
2023/11/03 05:39:53;;;;;;;2.22;0.35;;;8.70;99.90;;;;;;5052198;28;20021;-72
2023/11/03 05:42:19;;;;;;;1.17;0.38;;;8.70;99.90;;;;;;5054462;28;20116;-73
2023/11/03 05:44:45;;;;;;;0.80;0.47;;;8.70;99.90;;;;;;5065259;28;20025;-72
2023/11/03 05:47:12;;;;;;;0.35;0.20;;;8.70;99.90;;;;;;5055044;28;20024;-72
2023/11/03 05:49:38;;;;;;;0.28;0.20;;;8.70;99.90;;;;;;5033154;28;20065;-73
2023/11/03 05:52:04;;;;;;;1.50;0.35;;;8.80;99.90;;;;;;5044011;28;20025;-73
2023/11/03 05:54:30;;;;;;;0.93;0.30;;;8.80;99.90;;;;;;5058745;28;20395;-72
2023/11/03 05:56:56;;;;;;;0.08;0.05;;;8.80;99.90;;;;;;5058730;28;20112;-72
2023/11/03 05:59:21;;;;;;;6.93;1.98;;;8.80;99.90;;;;;;5061692;28;20036;-73
2023/11/03 06:01:47;;;;;;;1.45;0.63;;;8.80;99.90;;;;;;5052148;28;20029;-72
2023/11/03 06:04:13;;;;;;;0.30;0.30;;;8.80;99.90;;;;;;5060570;28;20028;-72
2023/11/03 06:06:39;;;;;;;0.50;0.47;;;8.70;99.90;;;;;;5057134;28;20485;-71
2023/11/03 06:09:05;;;;;;;0.63;0.63;;;8.70;99.90;;;;;;5033336;28;20389;-71
2023/11/03 06:11:31;;;;;;;1.55;1.02;;;8.70;99.90;;;;;;5042231;28;20478;-71
2023/11/03 06:13:57;;;;;;;1.42;0.35;;;8.70;99.90;;;;;;5048533;28;20107;-70
2023/11/03 06:16:22;;;;;;;6.10;0.40;;;8.70;99.90;;;;;;5050680;28;20044;-71
2023/11/03 06:18:49;;;;;;;1.38;0.20;;;8.70;99.90;;;;;;5050160;28;20373;-71
2023/11/03 06:21:15;;;;;;;0.30;0.30;;;8.70;99.90;;;;;;5051958;28;20025;-72
2023/11/03 06:23:41;;;;;;;0.20;0.20;;;8.80;99.90;;;;;;5050504;28;20028;-71
2023/11/03 06:26:07;;;;;;;0.20;0.10;;;8.70;99.90;;;;;;5053568;28;20025;-71
2023/11/03 06:28:35;;;;;;;0.93;0.32;;;8.80;99.90;;;;;;5058060;28;20028;-70
2023/11/03 06:31:01;;;;;;;0.17;0.10;;;8.70;99.90;;;;;;5054363;28;20033;-71
2023/11/03 06:33:27;;;;;;;0.40;0.40;;;8.70;99.90;;;;;;5054563;28;20079;-71
2023/11/03 06:35:52;;;;;;;4.93;0.60;;;8.70;99.90;;;;;;5050952;28;20028;-74
2023/11/03 06:38:18;;;;;;;1.17;0.45;;;8.80;99.90;;;;;;5054811;28;20121;-75
2023/11/03 06:40:44;;;;;;;1.27;0.88;;;8.80;99.90;;;;;;5058873;28;20078;-76
2023/11/03 06:43:10;;;;;;;0.52;0.52;;;8.80;99.90;;;;;;5054876;28;20031;-75
2023/11/03 06:45:36;;;;;;;2.05;0.60;;;8.70;99.90;;;;;;5045167;28;20033;-72
2023/11/03 06:48:02;;;;;;;0.10;0.10;;;8.70;99.90;;;;;;5060257;28;20020;-72
2023/11/03 06:50:27;;;;;;;0.40;0.40;;;8.70;99.90;;;;;;5048933;28;20121;-72
2023/11/03 06:52:55;;;;;;;2.60;0.57;;;8.70;99.90;;;;;;5047341;28;20033;-72
2023/11/03 06:55:21;;;;;;;2.03;0.30;;;8.70;99.90;;;;;;5041471;28;20033;-73
2023/11/03 06:57:47;;;;;;;5.10;0.50;;;8.70;99.90;;;;;;5040181;28;20021;-70
2023/11/03 07:00:14;;;;;;;12.07;1.55;;;8.70;99.90;;;;;;5037850;28;20171;-71
2023/11/03 07:02:40;;;;;;;1.80;0.45;;;8.70;99.90;;;;;;5045052;28;20095;-72
2023/11/03 07:05:09;;;;;;;1.77;1.50;;;8.80;99.90;;;;;;5030215;28;20029;-71
2023/11/03 07:07:36;;;;;;;0.52;0.35;;;8.70;99.90;;;;;;5045546;28;20025;-72
2023/11/03 07:10:02;;;;;;;6.28;0.85;;;8.70;99.90;;;;;;5053383;28;20495;-71
2023/11/03 07:12:29;;;;;;;12.35;1.13;;;8.70;99.90;;;;;;5044469;28;20392;-71
2023/11/03 07:14:55;;;;;;;2.10;0.85;;;8.70;99.90;;;;;;5064676;28;20025;-71
2023/11/03 07:17:21;;;;;;;0.10;0.10;;;8.70;99.90;;;;;;5058825;28;20040;-72
2023/11/03 07:19:47;;;;;;;0.22;0.20;;;8.70;99.90;;;;;;5040139;28;20076;-72
2023/11/03 07:22:15;;;;;;;1.20;0.43;;;8.70;99.90;;;;;;5043659;28;20057;-57
2023/11/03 07:24:42;;;;;;;0.15;0.15;;;8.70;99.90;;;;;;5048933;28;20033;-57
2023/11/03 07:27:08;;;;;;;0.10;0.10;;;8.70;99.90;;;;;;5052261;28;20037;-72
2023/11/03 07:29:35;;;;;;;0.30;0.30;;;8.70;99.90;;;;;;5052302;28;20032;-72
2023/11/03 07:32:00;;;;;;;2.83;0.65;;;8.70;99.90;;;;;;5048559;28;20284;-71
2023/11/03 07:34:27;;;;;;;0.17;0.17;;;8.70;99.90;;;;;;5054450;28;20111;-71
2023/11/03 07:36:52;;;;;;;1.75;0.85;;;8.70;99.90;;;;;;5050397;28;20397;-71
2023/11/03 07:39:18;;;;;;;2.25;0.95;;;8.80;99.90;;;;;;5070116;28;20103;-71
2023/11/03 07:41:44;;;;;;;5.72;0.60;;;8.80;99.90;;;;;;5053122;28;20071;-72
2023/11/03 07:44:13;;;;;;;0.22;0.20;;;8.80;99.90;;;;;;5053259;28;20108;-71
2023/11/03 07:46:38;;;;;;;0.22;0.22;;;8.80;99.90;;;;;;5046367;28;20047;-72
2023/11/03 07:49:04;;;;;;;0.10;0.10;;;8.80;99.90;;;;;;5046411;28;20108;-71
2023/11/03 07:51:30;;;;;;;0.08;0.08;;;8.90;99.90;;;;;;5041840;28;20025;-71
2023/11/03 07:53:57;;;;;;;0.60;0.30;;;8.90;99.90;;;;;;5051767;28;20041;-73
2023/11/03 07:56:23;;;;;;;2.33;0.57;;;8.90;99.90;;;;;;5047313;28;20051;-72
2023/11/03 07:58:49;;;;;;;0.43;0.35;;;8.90;99.90;;;;;;5039877;28;20087;-72
2023/11/03 08:01:15;;;;;;;9.10;1.17;;;8.90;99.90;;;;;;5045687;28;20017;-72
2023/11/03 08:03:42;;;;;;;5.85;0.82;;;8.90;99.90;;;;;;5044457;28;20034;-73
2023/11/03 08:06:08;;;;;;;0.85;0.57;;;8.90;99.90;;;;;;5045757;28;20504;-72
2023/11/03 08:08:34;;;;;;;0.20;0.20;;;8.90;99.90;;;;;;5037428;28;20034;-72
2023/11/03 08:11:02;;;;;;;0.30;0.25;;;8.90;99.90;;;;;;5044659;28;20029;-72
2023/11/03 08:13:29;;;;;;;1.10;0.45;;;8.90;99.90;;;;;;5041942;28;20041;-72
2023/11/03 08:15:56;;;;;;;0.28;0.28;;;8.80;99.90;;;;;;5039297;28;20050;-72
2023/11/03 08:18:23;;;;;;;0.30;0.20;;;8.90;99.90;;;;;;5038139;28;20065;-72
2023/11/03 08:20:49;;;;;;;0.00;0.00;;;9.00;99.90;;;;;;5051896;28;20032;-72
2023/11/03 08:23:15;;;;;;;0.08;0.08;;;9.10;99.90;;;;;;5048254;28;20029;-72
2023/11/03 08:25:45;;;;;;;1.20;0.20;;;8.90;99.90;;;;;;5049776;28;20400;-72
2023/11/03 08:28:12;;;;;;;1.45;0.50;;;9.00;99.90;;;;;;5048738;28;20021;-71
2023/11/03 08:30:41;;;;;;;0.73;0.30;;;9.00;99.90;;;;;;5048834;28;20067;-71
2023/11/03 08:33:08;;;;;;;0.57;0.32;;;9.00;99.90;;;;;;5061905;28;20337;-71
2023/11/03 08:35:34;;;;;;;2.05;0.43;;;8.90;99.90;;;;;;5053687;28;20033;-72
2023/11/03 08:38:02;;;;;;;1.23;1.08;;;8.90;99.90;;;;;;5050818;28;20025;-71
2023/11/03 08:40:28;;;;;;;0.75;0.32;;;8.90;99.90;;;;;;5041953;28;20039;-71
2023/11/03 08:42:54;;;;;;;1.95;1.00;;;8.90;99.90;;;;;;5048580;28;20447;-72
2023/11/03 08:45:20;;;;;;;0.22;0.22;;;8.90;99.90;;;;;;5052453;28;20432;-71
2023/11/03 08:47:46;;;;;;;3.30;0.32;;;9.10;99.90;;;;;;5028126;28;20474;-71
2023/11/03 08:50:16;;;;;;;0.90;0.28;;;9.10;99.90;;;;;;5045396;28;20033;-71
2023/11/03 08:52:44;;;;;;;0.22;0.22;;;9.10;99.90;;;;;;5042474;28;20027;-72
2023/11/03 08:55:12;;;;;;;0.32;0.32;;;9.10;99.90;;;;;;5049166;28;20036;-73
2023/11/03 08:57:42;;;;;;;1.23;0.68;;;9.10;99.90;;;;;;5053513;28;20021;-72
2023/11/03 09:00:11;;;;;;;1.98;0.68;;;9.20;99.90;;;;;;5062772;28;20153;-72
2023/11/03 09:02:38;;;;;;;1.20;0.20;;;9.20;99.90;;;;;;5057008;28;20029;-71
2023/11/03 09:05:07;;;;;;;0.00;0.00;;;9.10;99.90;;;;;;5057572;28;20028;-72
2023/11/03 09:07:35;;;;;;;0.30;0.20;;;9.10;99.90;;;;;;5058697;28;20039;-72
2023/11/03 09:10:06;;;;;;;6.57;0.55;;;9.10;99.90;;;;;;5057558;28;20020;-72
2023/11/03 09:12:35;;;;;;;0.35;0.22;;;9.20;99.90;;;;;;5051118;28;20060;-71
2023/11/03 09:15:07;;;;;;;1.00;0.57;;;9.20;99.90;;;;;;5038499;28;20029;-72
2023/11/03 09:17:34;;;;;;;1.52;0.22;;;9.30;99.90;;;;;;5044626;28;20462;-71
2023/11/03 09:20:01;;;;;;;1.42;0.20;;;9.40;99.90;;;;;;5048642;28;20039;-71
2023/11/03 09:22:27;;;;;;;0.20;0.20;;;9.50;99.90;;;;;;5043641;28;20028;-71
2023/11/03 09:24:56;;;;;;;8.05;3.95;;;9.60;99.90;;;;;;5048570;28;20031;-72
2023/11/03 09:27:23;;;;;;;1.92;0.30;;;9.70;99.90;;;;;;5051502;28;20041;-71
2023/11/03 09:29:50;;;;;;;5.30;1.25;;;9.70;99.90;;;;;;5034536;28;20041;-72
2023/11/03 09:32:19;;;;;;;5.60;0.52;;;9.60;99.90;;;;;;5056045;28;20492;-72
2023/11/03 09:34:48;;;;;;;3.60;2.15;;;9.60;99.90;;;;;;5043215;28;20099;-71
2023/11/03 09:37:14;;;;;;;0.52;0.52;;;9.60;99.90;;;;;;5043101;28;20029;-72
2023/11/03 09:39:42;;;;;;;0.30;0.30;;;9.70;99.90;;;;;;5059963;28;20024;-71
2023/11/03 09:42:10;;;;;;;0.90;0.57;;;9.70;99.90;;;;;;5047767;28;20024;-72
2023/11/03 09:44:37;;;;;;;0.90;0.52;;;9.90;99.90;;;;;;5015052;28;20107;-72
2023/11/03 09:47:05;;;;;;;0.75;0.17;;;9.80;99.90;;;;;;5049206;28;20044;-72
2023/11/03 09:49:33;;;;;;;0.82;0.52;;;9.80;99.90;;;;;;5047177;28;20076;-72
2023/11/03 09:52:10;;;;;;;0.50;0.40;;;9.80;99.90;;;;;;5052997;28;20155;-72
2023/11/03 09:54:36;;;;;;;0.70;0.35;;;9.90;99.90;;;;;;5051940;28;20071;-72
2023/11/03 09:57:03;;;;;;;2.58;0.28;;;10.00;99.90;;;;;;5043603;28;20029;-72
2023/11/03 09:59:35;;;;;;;2.63;0.45;;;10.00;99.90;;;;;;5050683;28;20017;-74
2023/11/03 10:02:11;;;;;;;0.75;0.68;;;10.00;99.90;;;;;;5054427;28;20132;-71
2023/11/03 10:04:41;;;;;;;2.35;0.68;;;9.90;99.90;;;;;;5047610;28;20033;-72
2023/11/03 10:07:11;;;;;;;0.88;0.68;;;9.90;99.90;;;;;;5043845;28;20036;-73
2023/11/03 10:09:38;;;;;;;0.85;0.50;;;9.80;99.90;;;;;;5047417;28;20544;-72
2023/11/03 10:12:12;;;;;;;0.88;0.47;;;9.80;99.90;;;;;;5046946;28;20091;-73
2023/11/03 10:14:41;;;;;;;1.23;0.93;;;9.80;99.90;;;;;;5048505;28;20541;-72
2023/11/03 10:17:09;;;;;;;5.65;0.95;;;9.90;99.90;;;;;;5051203;28;20032;-75
2023/11/03 10:19:36;;;;;;;0.47;0.38;;;9.90;99.90;;;;;;5032238;28;20469;-73
2023/11/03 10:22:11;;;;;;;0.45;0.32;;;9.90;99.90;;;;;;5054779;28;20461;-73
2023/11/03 10:24:39;;;;;;;0.85;0.50;;;9.90;99.90;;;;;;5045092;28;20025;-74
2023/11/03 10:27:06;;;;;;;4.88;1.08;;;9.80;99.90;;;;;;5048441;28;20029;-72
2023/11/03 10:29:32;;;;;;;0.65;0.57;;;9.80;99.90;;;;;;5072534;28;20099;-73
2023/11/03 10:31:58;;;;;;;0.43;0.10;;;9.90;99.90;;;;;;5050468;28;20032;-72
2023/11/03 10:34:24;;;;;;;0.30;0.30;;;9.90;99.90;;;;;;5033921;28;20179;-74
2023/11/03 10:36:51;;;;;;;1.75;0.80;;;9.90;99.90;;;;;;5048252;28;20028;-73
2023/11/03 10:39:17;;;;;;;0.17;0.10;;;10.00;99.90;;;;;;5039812;28;20032;-72
2023/11/03 10:41:44;;;;;;;0.60;0.40;;;9.90;99.90;;;;;;5040905;28;20082;-71
2023/11/03 10:44:16;;;;;;;0.43;0.25;;;10.10;99.90;;;;;;5050820;28;20108;-72
2023/11/03 10:47:05;;;;;;;1.55;0.35;;;10.10;99.90;;;;;;5023657;28;20060;-73
2023/11/03 10:49:35;;;;;;;2.90;0.85;;;10.20;99.90;;;;;;5016421;28;20029;-72
2023/11/03 10:52:13;;;;;;;0.65;0.50;;;10.20;99.90;;;;;;5031911;28;20055;-71
2023/11/03 10:54:52;;;;;;;1.65;0.65;;;10.30;99.90;;;;;;5024975;28;20030;-73
2023/11/03 10:57:18;;;;;;;0.00;0.00;;;10.20;99.90;;;;;;5025963;28;20675;-72
2023/11/03 10:59:59;;;;;;;1.85;0.50;;;10.30;99.90;;;;;;5031441;28;20026;-72
2023/11/03 11:02:45;;;;;;;6.18;0.40;;;10.30;99.90;;;;;;5022764;28;20528;-73
2023/11/03 11:05:38;;;;;;;0.75;0.60;;;10.30;99.90;;;;;;5015638;28;20472;-72
2023/11/03 11:08:04;;;;;;;2.45;0.82;;;10.40;99.90;;;;;;5040658;28;20635;-72
2023/11/03 11:10:46;;;;;;;3.05;1.30;;;10.40;99.90;;;;;;5015943;28;20075;-73
2023/11/03 11:13:18;;;;;;;0.77;0.60;;;10.50;99.90;;;;;;5014163;28;20041;-72
2023/11/03 11:15:56;;;;;;;0.85;0.30;;;10.70;99.90;;;;;;5020826;28;20507;-73
2023/11/03 11:18:29;;;;;;;0.20;0.17;;;10.70;99.90;;;;;;5037658;28;20120;-72
2023/11/03 11:21:01;;;;;;;0.20;0.20;;;10.70;99.90;;;;;;5046022;28;20032;-72
2023/11/03 11:23:37;;;;;;;7.90;0.38;;;10.70;99.90;;;;;;5056379;28;20083;-72
2023/11/03 11:26:06;;;;;;;5.05;0.55;;;10.60;99.90;;;;;;5053160;28;20721;-73
2023/11/03 11:28:38;;;;;;;0.70;0.17;;;10.50;99.90;;;;;;5077546;28;20061;-72
2023/11/03 11:31:36;;;;;;;1.05;0.88;;;10.60;99.90;;;;;;5042318;28;20064;-74
2023/11/03 11:34:16;;;;;;;0.17;0.17;;;10.80;99.90;;;;;;5043623;28;20523;-72
2023/11/03 11:36:44;;;;;;;0.17;0.17;;;10.80;99.90;;;;;;5039167;28;20034;-72
2023/11/03 11:39:16;;;;;;;0.10;0.10;;;10.80;99.90;;;;;;5056117;28;20087;-71
2023/11/03 11:41:47;;;;;;;6.25;0.60;;;11.10;99.90;;;;;;5044952;28;20112;-72
2023/11/03 11:44:18;;;;;;;3.97;1.02;;;11.30;99.90;;;;;;5062587;28;20031;-71
2023/11/03 11:46:50;;;;;;;1.38;0.45;;;11.00;99.90;;;;;;5053836;28;20025;-70
2023/11/03 11:49:21;;;;;;;0.57;0.40;;;11.00;99.90;;;;;;5079155;28;20041;-70
2023/11/03 11:51:52;;;;;;;1.52;1.40;;;10.90;99.90;;;;;;5051583;28;20094;-71
2023/11/03 11:54:19;;;;;;;0.20;0.20;;;10.90;99.90;;;;;;5065063;28;20057;-72
2023/11/03 11:56:49;;;;;;;0.13;0.13;;;11.20;99.90;;;;;;5055192;28;20060;-72
2023/11/03 11:59:19;;;;;;;1.48;0.73;;;11.20;99.90;;;;;;5039948;28;20013;-74
2023/11/03 12:01:48;;;;;;;0.32;0.17;;;11.20;99.90;;;;;;5036625;28;20017;-73
2023/11/03 12:04:15;;;;;;;6.45;1.13;;;11.40;99.90;;;;;;5060595;28;20112;-71
2023/11/03 12:06:42;;;;;;;0.25;0.25;;;11.60;99.90;;;;;;5053277;28;20131;-72
2023/11/03 12:09:09;;;;;;;0.82;0.45;;;11.70;99.90;;;;;;5052353;28;20039;-72
2023/11/03 12:11:40;;;;;;;3.60;1.23;;;11.70;99.90;;;;;;5044285;28;20052;-72
2023/11/03 12:14:07;;;;;;;0.75;0.22;;;11.40;99.90;;;;;;5056230;28;20031;-69
2023/11/03 12:16:35;;;;;;;2.38;0.22;;;11.30;99.90;;;;;;5052844;28;20387;-71
2023/11/03 12:19:04;;;;;;;0.20;0.20;;;11.30;99.90;;;;;;5066257;28;20024;-74
2023/11/03 12:21:31;;;;;;;9.23;0.77;;;11.20;99.90;;;;;;5050231;28;20044;-72
2023/11/03 12:23:58;;;;;;;0.50;0.38;;;11.20;99.90;;;;;;5047702;28;20075;-72
2023/11/03 12:26:27;;;;;;;0.22;0.20;;;11.10;99.90;;;;;;5049103;28;20049;-72
2023/11/03 12:29:28;;;;;;;2.28;0.55;;;11.10;99.90;;;;;;5049214;28;20033;-72
2023/11/03 12:32:07;;;;;;;2.50;0.85;;;11.10;99.90;;;;;;5037489;28;20063;-72
2023/11/03 12:34:35;;;;;;;0.28;0.28;;;11.20;99.90;;;;;;5047076;28;20048;-71
2023/11/03 12:37:02;;;;;;;19.27;1.50;;;11.30;99.90;;;;;;5050566;28;20037;-73
2023/11/03 12:39:28;;;;;;;0.20;0.17;;;11.10;99.90;;;;;;5056583;28;20037;-74
2023/11/03 12:42:06;;;;;;;0.95;0.40;;;11.30;99.90;;;;;;5049116;28;20098;-73
2023/11/03 12:44:56;;;;;;;0.30;0.30;;;11.30;99.90;;;;;;5058714;28;20120;-75
2023/11/03 12:47:50;;;;;;;0.10;0.10;;;11.20;99.90;;;;;;5054717;28;20116;-76
2023/11/03 12:50:19;;;;;;;2.83;0.47;;;11.10;99.90;;;;;;5068783;28;20060;-72
2023/11/03 12:53:09;;;;;;;1.17;0.10;;;11.00;99.90;;;;;;5052687;28;20106;-72
2023/11/03 12:55:35;;;;;;;7.97;0.30;;;11.00;99.90;;;;;;5055035;28;20033;-73
2023/11/03 12:58:13;;;;;;;5.88;1.25;;;10.90;99.90;;;;;;5061890;28;20460;-73